createdAt,value
2022-11-20T00:01:05.778Z,5.10
2022-11-20T00:03:32.423Z,5.10
2022-11-20T00:06:06.034Z,5.10
2022-11-20T00:08:32.720Z,5.10
2022-11-20T00:11:03.609Z,5.20
2022-11-20T00:13:30.262Z,5.30
2022-11-20T00:16:01.304Z,5.20
2022-11-20T00:18:28.284Z,5.30
2022-11-20T00:20:55.078Z,5.30
2022-11-20T00:23:21.713Z,5.30
2022-11-20T00:25:48.527Z,5.30
2022-11-20T00:28:15.172Z,5.40
2022-11-20T00:30:41.813Z,5.40
2022-11-20T00:33:08.497Z,5.30
2022-11-20T00:35:35.124Z,5.20
2022-11-20T00:38:01.816Z,5.20
2022-11-20T00:40:28.469Z,5.30
2022-11-20T00:42:55.165Z,5.20
2022-11-20T00:45:21.871Z,5.20
2022-11-20T00:47:48.577Z,5.30
2022-11-20T00:50:15.248Z,5.20
2022-11-20T00:52:42.014Z,5.20
2022-11-20T00:55:08.770Z,5.10
2022-11-20T00:57:35.400Z,5.10
2022-11-20T01:00:02.058Z,5.10
2022-11-20T01:02:28.708Z,5.10
2022-11-20T01:04:55.348Z,5.10
2022-11-20T01:07:22.096Z,5.20
2022-11-20T01:09:48.787Z,5.30
2022-11-20T01:12:15.435Z,5.30
2022-11-20T01:14:42.062Z,5.20
2022-11-20T01:17:08.764Z,5.20
2022-11-20T01:19:35.496Z,5.10
2022-11-20T01:22:02.199Z,5.10
2022-11-20T01:24:28.838Z,5.20
2022-11-20T01:26:55.529Z,5.30
2022-11-20T01:29:24.225Z,5.20
2022-11-20T01:31:52.425Z,5.20
2022-11-20T01:34:20.334Z,5.30
2022-11-20T01:36:47.583Z,5.20
2022-11-20T01:39:16.175Z,5.10
2022-11-20T01:42:07.054Z,5.10
2022-11-20T01:44:45.433Z,5.30
2022-11-20T01:47:15.460Z,5.20
2022-11-20T01:49:45.854Z,5.10
2022-11-20T01:52:16.010Z,5.20
2022-11-20T01:55:12.053Z,5.20
2022-11-20T01:57:39.428Z,5.10
2022-11-20T02:00:10.663Z,5.10
2022-11-20T02:02:41.702Z,5.30
2022-11-20T02:05:26.643Z,5.20
2022-11-20T02:07:53.752Z,5.20
2022-11-20T02:10:20.394Z,5.20
2022-11-20T02:13:05.905Z,5.20
2022-11-20T02:15:34.065Z,5.20
2022-11-20T02:18:00.863Z,5.10
2022-11-20T02:20:27.597Z,5.10
2022-11-20T02:23:00.537Z,5.20
2022-11-20T02:25:28.475Z,5.30
2022-11-20T02:27:55.443Z,5.20
2022-11-20T02:30:22.173Z,5.20
2022-11-20T02:32:48.861Z,5.20
2022-11-20T02:35:18.520Z,5.20
2022-11-20T02:37:45.850Z,5.20
2022-11-20T02:40:12.521Z,5.30
2022-11-20T02:42:39.214Z,5.10
2022-11-20T02:45:06.536Z,5.10
2022-11-20T02:47:33.278Z,5.20
2022-11-20T02:50:00.052Z,5.30
2022-11-20T02:52:27.198Z,5.10
2022-11-20T02:54:53.884Z,5.10
2022-11-20T02:57:20.605Z,5.10
2022-11-20T02:59:47.307Z,5.20
2022-11-20T03:02:14.013Z,5.20
2022-11-20T03:04:40.714Z,5.20
2022-11-20T03:07:08.429Z,5.20
2022-11-20T03:09:35.131Z,5.20
2022-11-20T03:12:01.856Z,5.30
2022-11-20T03:14:28.547Z,5.10
2022-11-20T03:16:55.945Z,5.10
2022-11-20T03:19:23.073Z,5.10
2022-11-20T03:21:49.936Z,5.10
2022-11-20T03:24:16.614Z,5.10
2022-11-20T03:26:43.360Z,5.20
2022-11-20T03:29:10.087Z,5.20
2022-11-20T03:31:38.203Z,5.10
2022-11-20T03:34:05.441Z,5.20
2022-11-20T03:36:32.140Z,5.20
2022-11-20T03:38:59.063Z,5.10
2022-11-20T03:41:26.834Z,5.10
2022-11-20T03:43:54.818Z,5.20
2022-11-20T03:46:21.868Z,5.10
2022-11-20T03:48:51.698Z,5.20
2022-11-20T03:51:19.957Z,5.10
2022-11-20T03:53:47.320Z,5.20
2022-11-20T03:56:15.053Z,5.20
2022-11-20T03:58:42.162Z,5.10
2022-11-20T04:01:10.087Z,5.20
2022-11-20T04:03:37.355Z,5.10
2022-11-20T04:06:06.873Z,5.00
2022-11-20T04:08:33.880Z,5.10
2022-11-20T04:11:19.944Z,5.10
2022-11-20T04:13:47.691Z,5.10
2022-11-20T04:16:14.433Z,5.10
2022-11-20T04:18:41.243Z,5.00
2022-11-20T04:21:07.923Z,5.10
2022-11-20T04:23:34.710Z,5.00
2022-11-20T04:26:05.419Z,5.00
2022-11-20T04:28:32.160Z,5.10
2022-11-20T04:31:06.106Z,5.10
2022-11-20T04:33:34.441Z,5.10
2022-11-20T04:36:02.903Z,5.10
2022-11-20T04:38:29.627Z,5.00
2022-11-20T04:41:00.161Z,5.00
2022-11-20T04:43:27.315Z,5.10
2022-11-20T04:45:54.272Z,5.30
2022-11-20T04:48:21.044Z,5.20
2022-11-20T04:50:47.705Z,5.10
2022-11-20T04:53:14.375Z,5.20
2022-11-20T04:55:41.039Z,5.10
2022-11-20T04:58:07.683Z,5.00
2022-11-20T05:00:34.530Z,5.00
2022-11-20T05:03:01.520Z,4.90
2022-11-20T05:05:28.527Z,5.00
2022-11-20T05:07:56.934Z,5.10
2022-11-20T05:10:23.745Z,5.00
2022-11-20T05:12:50.391Z,5.10
2022-11-20T05:15:17.219Z,5.10
2022-11-20T05:17:50.760Z,5.10
2022-11-20T05:20:18.110Z,5.10
2022-11-20T05:22:44.856Z,5.00
2022-11-20T05:25:11.915Z,5.00
2022-11-20T05:27:38.778Z,5.10
2022-11-20T05:30:05.820Z,5.00
2022-11-20T05:32:32.458Z,5.10
2022-11-20T05:34:59.162Z,5.00
2022-11-20T05:37:25.820Z,4.90
2022-11-20T05:39:52.460Z,5.10
2022-11-20T05:42:31.157Z,5.00
2022-11-20T05:44:58.776Z,5.20
2022-11-20T05:47:25.908Z,5.10
2022-11-20T05:49:52.595Z,5.10
2022-11-20T05:52:19.254Z,5.20
2022-11-20T05:54:45.890Z,5.10
2022-11-20T05:57:12.590Z,5.10
2022-11-20T05:59:39.401Z,5.00
2022-11-20T06:02:06.155Z,5.10
2022-11-20T06:04:35.268Z,5.10
2022-11-20T06:07:02.010Z,5.10
2022-11-20T06:09:28.670Z,5.00
2022-11-20T06:11:55.519Z,5.10
2022-11-20T06:14:22.216Z,5.10
2022-11-20T06:16:48.893Z,5.10
2022-11-20T06:19:16.151Z,5.00
2022-11-20T06:21:42.901Z,5.10
2022-11-20T06:24:10.640Z,4.90
2022-11-20T06:26:37.321Z,4.90
2022-11-20T06:29:04.022Z,4.80
2022-11-20T06:31:30.800Z,4.90
2022-11-20T06:33:57.437Z,4.70
2022-11-20T06:36:24.106Z,4.70
2022-11-20T06:38:51.115Z,4.80
2022-11-20T06:41:19.158Z,4.70
2022-11-20T06:43:45.919Z,4.70
2022-11-20T06:46:13.421Z,4.70
2022-11-20T06:48:40.403Z,4.70
2022-11-20T06:51:07.901Z,4.70
2022-11-20T06:53:34.627Z,4.60
2022-11-20T06:56:01.259Z,4.70
2022-11-20T06:58:28.940Z,4.90
2022-11-20T07:01:01.978Z,4.80
2022-11-20T07:03:28.804Z,4.80
2022-11-20T07:05:59.472Z,4.90
2022-11-20T07:08:26.217Z,4.90
2022-11-20T07:10:53.071Z,5.00
2022-11-20T07:13:19.737Z,5.10
2022-11-20T07:15:46.445Z,5.10
2022-11-20T07:18:13.177Z,5.00
2022-11-20T07:20:39.860Z,5.10
2022-11-20T07:23:06.540Z,5.00
2022-11-20T07:25:33.847Z,5.00
2022-11-20T07:28:01.083Z,5.10
2022-11-20T07:31:23.668Z,5.20
2022-11-20T07:33:50.297Z,5.20
2022-11-20T07:36:17.050Z,5.30
2022-11-20T07:38:43.747Z,5.20
2022-11-20T07:41:10.479Z,5.20
2022-11-20T07:43:40.992Z,5.10
2022-11-20T07:46:08.168Z,5.20
2022-11-20T07:48:34.812Z,5.20
2022-11-20T07:51:01.478Z,5.30
2022-11-20T07:53:28.128Z,5.40
2022-11-20T07:55:54.858Z,5.30
2022-11-20T07:58:21.657Z,5.30
2022-11-20T08:00:48.345Z,5.30
2022-11-20T08:03:17.099Z,5.30
2022-11-20T08:05:46.015Z,5.30
2022-11-20T08:08:12.698Z,5.30
2022-11-20T08:10:39.321Z,5.40
2022-11-20T08:13:24.712Z,5.30
2022-11-20T08:15:51.805Z,5.40
2022-11-20T08:18:33.878Z,5.50
2022-11-20T08:21:04.704Z,5.50
2022-11-20T08:23:31.363Z,5.50
2022-11-20T08:25:58.450Z,5.60
2022-11-20T08:28:25.117Z,5.40
2022-11-20T08:30:51.826Z,5.50
2022-11-20T08:33:19.116Z,5.50
2022-11-20T08:35:45.922Z,5.60
2022-11-20T08:38:12.534Z,5.70
2022-11-20T08:40:39.196Z,5.70
2022-11-20T08:43:05.824Z,5.70
2022-11-20T08:45:34.697Z,5.80
2022-11-20T08:48:05.374Z,5.80
2022-11-20T08:50:35.049Z,6.00
2022-11-20T08:53:05.417Z,6.00
2022-11-20T08:55:32.043Z,6.10
2022-11-20T08:57:58.697Z,6.10
2022-11-20T09:00:25.420Z,6.10
2022-11-20T09:02:53.187Z,6.10
2022-11-20T09:05:19.863Z,6.00
2022-11-20T09:07:46.631Z,6.10
2022-11-20T09:10:28.789Z,6.20
2022-11-20T09:12:58.615Z,6.10
2022-11-20T09:15:25.991Z,6.20
2022-11-20T09:18:00.123Z,6.10
2022-11-20T09:20:27.285Z,6.10
2022-11-20T09:22:53.924Z,6.20
2022-11-20T09:25:20.539Z,6.20
2022-11-20T09:27:47.591Z,6.20
2022-11-20T09:30:16.714Z,6.10
2022-11-20T09:32:43.704Z,6.10
2022-11-20T09:35:10.362Z,6.30
2022-11-20T09:37:36.979Z,6.30
2022-11-20T09:40:03.792Z,6.40
2022-11-20T09:42:45.985Z,6.50
2022-11-20T09:45:31.587Z,6.60
2022-11-20T09:48:01.284Z,6.60
2022-11-20T09:50:39.884Z,6.70
2022-11-20T09:53:25.809Z,6.80
2022-11-20T09:55:52.724Z,6.90
2022-11-20T09:58:40.435Z,6.80
2022-11-20T10:01:12.907Z,6.90
2022-11-20T10:03:42.821Z,6.90
2022-11-20T10:06:13.111Z,6.90
2022-11-20T10:08:45.967Z,6.80
2022-11-20T10:11:35.851Z,6.90
2022-11-20T10:14:05.489Z,7.00
2022-11-20T10:16:36.681Z,7.20
2022-11-20T10:19:28.408Z,7.50
2022-11-20T10:22:02.611Z,7.80
2022-11-20T10:24:48.177Z,8.00
2022-11-20T10:27:27.039Z,8.10
2022-11-20T10:30:02.787Z,7.90
2022-11-20T10:32:34.664Z,7.70
2022-11-20T10:35:05.802Z,7.60
2022-11-20T10:37:33.413Z,7.60
2022-11-20T10:40:06.086Z,7.80
2022-11-20T10:42:35.434Z,7.90
2022-11-20T10:45:14.486Z,7.90
2022-11-20T10:47:41.080Z,8.20
2022-11-20T10:50:11.710Z,8.30
2022-11-20T10:52:50.411Z,8.20
2022-11-20T10:55:17.050Z,8.20
2022-11-20T10:57:56.660Z,8.30
2022-11-20T11:00:23.311Z,8.50
2022-11-20T11:02:51.206Z,8.50
2022-11-20T11:05:30.960Z,8.60
2022-11-20T11:07:58.618Z,8.40
2022-11-20T11:10:28.984Z,8.10
2022-11-20T11:12:55.643Z,8.00
2022-11-20T11:15:27.204Z,7.70
2022-11-20T11:17:54.039Z,7.70
2022-11-20T11:20:24.640Z,7.70
2022-11-20T11:22:56.074Z,7.60
2022-11-20T11:25:31.656Z,7.70
2022-11-20T11:28:02.275Z,7.60
2022-11-20T11:30:31.152Z,7.50
2022-11-20T11:33:10.151Z,7.60
2022-11-20T11:35:48.238Z,7.80
2022-11-20T11:38:30.760Z,7.90
2022-11-20T11:40:58.331Z,7.80
2022-11-20T11:43:45.899Z,7.80
2022-11-20T11:46:21.439Z,8.00
2022-11-20T11:48:57.089Z,7.90
2022-11-20T11:51:24.679Z,7.80
2022-11-20T11:53:51.563Z,7.80
2022-11-20T11:56:18.211Z,7.90
2022-11-20T11:58:49.346Z,7.80
2022-11-20T12:01:22.069Z,7.90
2022-11-20T12:04:18.482Z,8.20
2022-11-20T12:06:46.636Z,8.60
2022-11-20T12:09:13.472Z,8.40
2022-11-20T12:11:40.116Z,8.30
2022-11-20T12:14:27.423Z,8.20
2022-11-20T12:16:55.041Z,8.20
2022-11-20T12:19:22.085Z,8.20
2022-11-20T12:22:03.358Z,7.90
2022-11-20T12:24:34.700Z,7.70
2022-11-20T12:27:10.221Z,7.30
2022-11-20T12:29:39.716Z,6.90
2022-11-20T12:32:15.523Z,7.00
2022-11-20T12:35:00.641Z,7.10
2022-11-20T12:37:34.109Z,7.10
2022-11-20T12:40:09.119Z,7.00
2022-11-20T12:43:06.317Z,7.10
2022-11-20T12:45:32.949Z,6.80
2022-11-20T12:47:59.567Z,6.70
2022-11-20T12:51:08.457Z,6.70
2022-11-20T12:53:36.788Z,6.80
2022-11-20T12:56:22.175Z,6.80
2022-11-20T12:58:48.802Z,6.60
2022-11-20T13:01:51.233Z,6.60
2022-11-20T13:04:38.270Z,6.70
2022-11-20T13:07:06.706Z,6.80
2022-11-20T13:09:34.658Z,6.60
2022-11-20T13:12:07.555Z,6.40
2022-11-20T13:14:53.088Z,6.50
2022-11-20T13:17:25.760Z,6.40
2022-11-20T13:19:56.676Z,6.60
2022-11-20T13:22:29.953Z,6.70
2022-11-20T13:24:56.788Z,6.60
2022-11-20T13:27:24.324Z,6.50
2022-11-20T13:30:20.344Z,6.30
2022-11-20T13:32:51.423Z,6.20
2022-11-20T13:35:25.607Z,6.10
2022-11-20T13:38:09.416Z,6.10
2022-11-20T13:40:50.891Z,6.20
2022-11-20T13:43:37.955Z,6.20
2022-11-20T13:46:08.926Z,6.10
2022-11-20T13:48:46.178Z,6.20
2022-11-20T13:51:15.816Z,6.10
2022-11-20T13:54:13.347Z,6.10
2022-11-20T13:56:59.915Z,6.00
2022-11-20T13:59:35.005Z,6.10
2022-11-20T14:02:02.039Z,6.20
2022-11-20T14:04:34.780Z,6.20
2022-11-20T14:07:01.433Z,6.20
2022-11-20T14:09:32.830Z,6.20
2022-11-20T14:11:59.813Z,6.20
2022-11-20T14:14:30.396Z,6.30
2022-11-20T14:17:17.264Z,6.20
2022-11-20T14:19:45.220Z,6.30
2022-11-20T14:22:11.837Z,6.20
2022-11-20T14:24:38.739Z,6.30
2022-11-20T14:27:05.541Z,6.20
2022-11-20T14:29:36.573Z,6.20
2022-11-20T14:32:03.838Z,6.30
2022-11-20T14:34:31.989Z,6.30
2022-11-20T14:37:03.104Z,6.30
2022-11-20T14:39:32.744Z,6.40
2022-11-20T14:41:59.365Z,6.30
2022-11-20T14:44:32.716Z,6.30
2022-11-20T14:47:00.454Z,6.20
2022-11-20T14:49:27.478Z,6.20
2022-11-20T14:52:20.518Z,6.20
2022-11-20T14:54:51.265Z,6.20
2022-11-20T14:57:28.471Z,6.20
2022-11-20T15:00:13.472Z,6.10
2022-11-20T15:02:42.028Z,6.10
2022-11-20T15:05:08.860Z,6.20
2022-11-20T15:07:35.528Z,6.10
2022-11-20T15:10:03.847Z,6.10
2022-11-20T15:12:31.514Z,6.00
2022-11-20T15:14:58.519Z,6.00
2022-11-20T15:17:25.319Z,6.00
2022-11-20T15:19:53.235Z,6.00
2022-11-20T15:22:19.967Z,6.10
2022-11-20T15:24:46.709Z,6.20
2022-11-20T15:27:13.353Z,6.00
2022-11-20T15:29:40.000Z,6.10
2022-11-20T15:32:10.487Z,6.00
2022-11-20T15:34:39.906Z,5.90
2022-11-20T15:37:06.551Z,5.90
2022-11-20T15:39:33.214Z,6.00
2022-11-20T15:41:59.953Z,5.90
2022-11-20T15:44:26.640Z,5.90
2022-11-20T15:46:53.275Z,5.80
2022-11-20T15:49:19.943Z,5.80
2022-11-20T15:51:49.097Z,5.80
2022-11-20T15:54:18.415Z,5.60
2022-11-20T15:56:45.184Z,5.70
2022-11-20T15:59:12.072Z,5.50
2022-11-20T16:01:38.809Z,5.50
2022-11-20T16:04:06.278Z,5.40
2022-11-20T16:06:33.034Z,5.30
2022-11-20T16:08:59.718Z,5.30
2022-11-20T16:11:26.335Z,5.20
2022-11-20T16:14:11.721Z,5.20
2022-11-20T16:16:40.151Z,5.20
2022-11-20T16:19:07.093Z,5.20
2022-11-20T16:21:33.859Z,5.20
2022-11-20T16:24:01.379Z,5.00
2022-11-20T16:26:28.597Z,5.00
2022-11-20T16:28:55.510Z,5.00
2022-11-20T16:31:22.574Z,4.90
2022-11-20T16:33:53.563Z,5.00
2022-11-20T16:36:21.035Z,4.90
2022-11-20T16:38:47.693Z,4.90
2022-11-20T16:41:14.506Z,4.90
2022-11-20T16:43:44.879Z,5.00
2022-11-20T16:46:11.529Z,5.00
2022-11-20T16:48:38.235Z,4.90
2022-11-20T16:51:08.143Z,5.00
2022-11-20T16:53:34.888Z,4.80
2022-11-20T16:56:11.297Z,4.80
2022-11-20T16:58:37.940Z,4.80
2022-11-20T17:01:10.617Z,4.60
2022-11-20T17:03:41.155Z,4.70
2022-11-20T17:06:15.118Z,4.50
2022-11-20T17:08:42.207Z,4.50
2022-11-20T17:11:10.335Z,4.40
2022-11-20T17:13:39.905Z,4.20
2022-11-20T17:16:07.969Z,4.30
2022-11-20T17:18:35.056Z,4.20
2022-11-20T17:21:05.330Z,4.20
2022-11-20T17:23:32.783Z,4.10
2022-11-20T17:26:08.303Z,4.00
2022-11-20T17:28:35.370Z,4.10
2022-11-20T17:31:03.454Z,4.10
2022-11-20T17:33:30.137Z,4.00
2022-11-20T17:35:56.898Z,4.00
2022-11-20T17:38:23.771Z,3.80
2022-11-20T17:40:50.387Z,3.70
2022-11-20T17:43:17.176Z,3.60
2022-11-20T17:45:44.984Z,3.40
2022-11-20T17:48:12.085Z,3.60
2022-11-20T17:50:38.897Z,3.70
2022-11-20T17:53:07.147Z,3.50
2022-11-20T17:55:55.841Z,3.40
2022-11-20T17:58:22.643Z,3.40
2022-11-20T18:00:49.355Z,3.50
2022-11-20T18:03:15.984Z,3.40
2022-11-20T18:05:42.632Z,3.30
2022-11-20T18:08:09.240Z,3.10
2022-11-20T18:10:35.950Z,3.10
2022-11-20T18:13:02.669Z,3.10
2022-11-20T18:15:29.973Z,2.80
2022-11-20T18:17:56.618Z,2.90
2022-11-20T18:20:34.020Z,2.90
2022-11-20T18:23:03.361Z,2.90
2022-11-20T18:25:29.998Z,3.10
2022-11-20T18:27:56.687Z,3.10
2022-11-20T18:30:23.304Z,3.30
2022-11-20T18:32:50.160Z,3.30
2022-11-20T18:35:16.852Z,3.40
2022-11-20T18:37:43.561Z,3.00
2022-11-20T18:40:10.600Z,3.20
2022-11-20T18:42:55.975Z,3.20
2022-11-20T18:45:22.599Z,3.30
2022-11-20T18:47:49.220Z,3.30
2022-11-20T18:50:15.902Z,3.20
2022-11-20T18:52:44.533Z,3.10
2022-11-20T18:55:11.940Z,3.00
2022-11-20T18:57:38.569Z,2.90
2022-11-20T19:00:09.315Z,3.00
2022-11-20T19:02:41.075Z,2.90
2022-11-20T19:05:13.516Z,2.80
2022-11-20T19:07:40.718Z,2.70
2022-11-20T19:10:07.906Z,2.80
2022-11-20T19:12:34.567Z,2.90
2022-11-20T19:15:01.205Z,3.00
2022-11-20T19:17:27.894Z,3.00
2022-11-20T19:19:55.132Z,3.10
2022-11-20T19:22:22.155Z,3.10
2022-11-20T19:24:49.239Z,3.20
2022-11-20T19:27:15.897Z,3.10
2022-11-20T19:29:42.566Z,3.00
2022-11-20T19:32:09.208Z,3.00
2022-11-20T19:34:35.836Z,3.10
2022-11-20T19:37:02.509Z,3.10
2022-11-20T19:39:29.229Z,3.30
2022-11-20T19:41:55.906Z,3.30
2022-11-20T19:44:22.592Z,3.10
2022-11-20T19:46:50.796Z,3.30
2022-11-20T19:49:17.415Z,3.10
2022-11-20T19:51:45.747Z,2.90
2022-11-20T19:54:12.482Z,2.80
2022-11-20T19:56:39.253Z,2.80
2022-11-20T19:59:05.916Z,2.80
2022-11-20T20:01:32.630Z,2.80
2022-11-20T20:04:05.075Z,2.90
2022-11-20T20:06:32.600Z,3.00
2022-11-20T20:09:00.676Z,3.10
2022-11-20T20:11:28.659Z,3.10
2022-11-20T20:13:56.355Z,3.10
2022-11-20T20:16:23.815Z,3.10
2022-11-20T20:18:54.246Z,3.20
2022-11-20T20:21:20.911Z,3.20
2022-11-20T20:23:50.587Z,3.10
2022-11-20T20:26:17.233Z,3.10
2022-11-20T20:28:43.857Z,3.10
2022-11-20T20:31:14.547Z,3.10
2022-11-20T20:33:41.707Z,3.20
2022-11-20T20:36:09.523Z,3.20
2022-11-20T20:38:36.247Z,3.30
2022-11-20T20:41:02.931Z,3.30
2022-11-20T20:43:29.888Z,3.30
2022-11-20T20:45:56.502Z,3.30
2022-11-20T20:48:24.137Z,3.30
2022-11-20T20:50:54.705Z,3.30
2022-11-20T20:53:21.723Z,3.30
2022-11-20T20:55:58.778Z,3.30
2022-11-20T20:58:25.923Z,3.20
2022-11-20T21:00:53.006Z,3.10
2022-11-20T21:03:20.029Z,3.30
2022-11-20T21:05:47.013Z,3.30
2022-11-20T21:08:22.946Z,3.40
2022-11-20T21:10:49.830Z,3.40
2022-11-20T21:13:16.459Z,3.50
2022-11-20T21:15:45.656Z,3.50
2022-11-20T21:18:12.309Z,3.50
2022-11-20T21:20:58.140Z,3.60
2022-11-20T21:23:24.776Z,3.60
2022-11-20T21:25:51.639Z,3.70
2022-11-20T21:28:18.602Z,3.60
2022-11-20T21:30:45.593Z,3.60
2022-11-20T21:33:12.390Z,3.60
2022-11-20T21:35:39.036Z,3.80
2022-11-20T21:38:05.667Z,3.80
2022-11-20T21:40:32.343Z,3.80
2022-11-20T21:42:59.127Z,3.90
2022-11-20T21:45:25.748Z,3.90
2022-11-20T21:47:52.366Z,4.00
2022-11-20T21:50:19.076Z,3.90
2022-11-20T21:52:45.878Z,4.10
2022-11-20T21:55:12.553Z,4.20
2022-11-20T21:57:39.170Z,4.30
2022-11-20T22:00:06.629Z,4.40
2022-11-20T22:02:38.268Z,4.50
2022-11-20T22:05:05.064Z,4.40
2022-11-20T22:07:31.811Z,4.20
2022-11-20T22:09:58.446Z,4.20
2022-11-20T22:12:25.068Z,4.20
2022-11-20T22:14:51.763Z,4.20
2022-11-20T22:17:38.329Z,4.10
2022-11-20T22:20:05.212Z,4.00
2022-11-20T22:22:31.846Z,3.90
2022-11-20T22:24:58.452Z,4.00
2022-11-20T22:27:25.064Z,4.00
2022-11-20T22:29:52.217Z,3.90
2022-11-20T22:32:18.835Z,3.90
2022-11-20T22:34:45.483Z,4.00
2022-11-20T22:37:12.253Z,3.90
2022-11-20T22:39:38.866Z,3.90
2022-11-20T22:42:05.474Z,3.80
2022-11-20T22:44:32.149Z,4.00
2022-11-20T22:46:58.748Z,3.90
2022-11-20T22:49:25.422Z,3.90
2022-11-20T22:51:52.080Z,3.80
2022-11-20T22:54:18.739Z,3.80
2022-11-20T22:56:45.598Z,3.80
2022-11-20T22:59:12.412Z,3.80
2022-11-20T23:01:39.087Z,3.70
2022-11-20T23:04:06.820Z,3.50
2022-11-20T23:06:36.451Z,3.60
2022-11-20T23:09:04.229Z,3.50
2022-11-20T23:11:31.486Z,3.50
2022-11-20T23:14:01.351Z,3.60
2022-11-20T23:16:29.157Z,3.50
2022-11-20T23:19:00.613Z,3.50
2022-11-20T23:21:27.822Z,3.60
2022-11-20T23:23:55.523Z,3.60
2022-11-20T23:26:23.175Z,3.50
2022-11-20T23:28:50.168Z,3.60
2022-11-20T23:31:16.959Z,3.50
2022-11-20T23:33:45.034Z,3.50
2022-11-20T23:36:12.404Z,3.50
2022-11-20T23:38:39.028Z,3.50
2022-11-20T23:41:05.727Z,3.40
2022-11-20T23:43:32.616Z,3.50
2022-11-20T23:46:00.053Z,3.50
2022-11-20T23:48:28.116Z,3.50
2022-11-20T23:50:54.893Z,3.50
2022-11-20T23:53:24.592Z,3.50
2022-11-20T23:55:52.751Z,3.50
2022-11-20T23:58:20.404Z,3.50
